DGE weather

Mudgee Airport
Mudgee, New South Wales, Australia

Public forecast

Using degrees Celsius for public forecast. Weather courtesy of forecast.io.

Current aviation weather report (METAR) for Mudgee Airport

Retrieved 2019/10/19 13:00 UTC (48 minutes ago):

YMDG 191300Z AUTO 19007KT //// // NCD 13/M00 Q1020

Closest aviation forecast (TAF) to Mudgee Airport

Closest forecast is Dubbo City Regional Airport, 56.5 nm (104.6 km) WNW. Retrieved 2019/10/19 12:37 UTC (1 hour ago):

TAF YSDU 191112Z 1912/2006 20013KT CAVOK FM191800 17008KT CAVOK FM200000 19013KT CAVOK